sensor_id;sensor_type;location;lat;lon;timestamp;P1;durP1;ratioP1;P2;durP2;ratioP2
78368;SDS011;71113;43.092;-89.268;2024-01-30T00:02:10;117.90;;;47.80;;
78368;SDS011;71113;43.092;-89.268;2024-01-30T00:04:36;109.10;;;46.80;;
78368;SDS011;71113;43.092;-89.268;2024-01-30T00:07:02;107.45;;;46.75;;
78368;SDS011;71113;43.092;-89.268;2024-01-30T00:09:28;98.65;;;40.90;;
78368;SDS011;71113;43.092;-89.268;2024-01-30T00:11:54;96.20;;;39.88;;
78368;SDS011;71113;43.092;-89.268;2024-01-30T00:14:20;95.97;;;40.13;;
78368;SDS011;71113;43.092;-89.268;2024-01-30T00:16:46;87.40;;;36.90;;
78368;SDS011;71113;43.092;-89.268;2024-01-30T00:19:12;474.77;;;256.45;;
78368;SDS011;71113;43.092;-89.268;2024-01-30T00:21:37;254.85;;;109.45;;
78368;SDS011;71113;43.092;-89.268;2024-01-30T00:24:03;158.68;;;66.78;;
78368;SDS011;71113;43.092;-89.268;2024-01-30T00:26:29;180.15;;;73.90;;
78368;SDS011;71113;43.092;-89.268;2024-01-30T00:28:55;226.65;;;90.05;;
78368;SDS011;71113;43.092;-89.268;2024-01-30T00:31:44;238.15;;;89.63;;
78368;SDS011;71113;43.092;-89.268;2024-01-30T00:34:11;160.15;;;69.18;;
78368;SDS011;71113;43.092;-89.268;2024-01-30T00:36:37;156.88;;;67.25;;
78368;SDS011;71113;43.092;-89.268;2024-01-30T00:39:03;155.77;;;64.82;;
78368;SDS011;71113;43.092;-89.268;2024-01-30T00:41:32;152.77;;;63.70;;
78368;SDS011;71113;43.092;-89.268;2024-01-30T00:43:58;135.35;;;58.47;;
78368;SDS011;71113;43.092;-89.268;2024-01-30T00:46:23;131.60;;;54.50;;
78368;SDS011;71113;43.092;-89.268;2024-01-30T00:48:49;142.70;;;59.53;;
78368;SDS011;71113;43.092;-89.268;2024-01-30T00:51:15;132.43;;;54.15;;
78368;SDS011;71113;43.092;-89.268;2024-01-30T00:53:41;126.63;;;54.67;;
78368;SDS011;71113;43.092;-89.268;2024-01-30T00:56:07;119.35;;;49.65;;
78368;SDS011;71113;43.092;-89.268;2024-01-30T00:58:34;114.75;;;48.50;;
78368;SDS011;71113;43.092;-89.268;2024-01-30T01:00:59;104.00;;;44.50;;
78368;SDS011;71113;43.092;-89.268;2024-01-30T01:03:25;110.35;;;46.97;;
78368;SDS011;71113;43.092;-89.268;2024-01-30T01:05:51;103.72;;;42.70;;
78368;SDS011;71113;43.092;-89.268;2024-01-30T01:08:17;99.07;;;43.70;;
78368;SDS011;71113;43.092;-89.268;2024-01-30T01:10:43;93.45;;;40.55;;
78368;SDS011;71113;43.092;-89.268;2024-01-30T01:13:09;84.90;;;38.10;;
78368;SDS011;71113;43.092;-89.268;2024-01-30T01:15:35;97.50;;;43.78;;
78368;SDS011;71113;43.092;-89.268;2024-01-30T01:18:02;167.07;;;75.03;;
78368;SDS011;71113;43.092;-89.268;2024-01-30T01:20:28;163.30;;;67.72;;
78368;SDS011;71113;43.092;-89.268;2024-01-30T01:22:54;123.05;;;57.30;;
78368;SDS011;71113;43.092;-89.268;2024-01-30T01:25:20;129.43;;;55.72;;
78368;SDS011;71113;43.092;-89.268;2024-01-30T01:27:47;169.32;;;63.30;;
78368;SDS011;71113;43.092;-89.268;2024-01-30T01:30:17;161.13;;;63.15;;
78368;SDS011;71113;43.092;-89.268;2024-01-30T01:32:50;142.10;;;56.08;;
78368;SDS011;71113;43.092;-89.268;2024-01-30T01:35:23;135.68;;;53.28;;
78368;SDS011;71113;43.092;-89.268;2024-01-30T01:37:53;138.48;;;53.97;;
78368;SDS011;71113;43.092;-89.268;2024-01-30T01:40:26;130.43;;;48.38;;
78368;SDS011;71113;43.092;-89.268;2024-01-30T01:42:53;115.18;;;46.05;;
78368;SDS011;71113;43.092;-89.268;2024-01-30T01:45:20;105.65;;;43.25;;
78368;SDS011;71113;43.092;-89.268;2024-01-30T01:47:47;106.00;;;40.90;;
78368;SDS011;71113;43.092;-89.268;2024-01-30T01:50:16;106.95;;;42.55;;
78368;SDS011;71113;43.092;-89.268;2024-01-30T01:52:44;93.22;;;38.97;;
78368;SDS011;71113;43.092;-89.268;2024-01-30T01:55:13;87.60;;;35.60;;
78368;SDS011;71113;43.092;-89.268;2024-01-30T01:57:40;85.25;;;34.65;;
78368;SDS011;71113;43.092;-89.268;2024-01-30T02:00:07;104.55;;;37.17;;
78368;SDS011;71113;43.092;-89.268;2024-01-30T02:02:35;84.93;;;32.88;;
78368;SDS011;71113;43.092;-89.268;2024-01-30T02:05:02;88.35;;;32.17;;
78368;SDS011;71113;43.092;-89.268;2024-01-30T02:07:29;84.18;;;31.60;;
78368;SDS011;71113;43.092;-89.268;2024-01-30T02:09:55;86.55;;;34.47;;
78368;SDS011;71113;43.092;-89.268;2024-01-30T02:12:21;133.85;;;63.88;;
78368;SDS011;71113;43.092;-89.268;2024-01-30T02:14:47;108.78;;;48.17;;
78368;SDS011;71113;43.092;-89.268;2024-01-30T02:17:15;244.43;;;98.45;;
78368;SDS011;71113;43.092;-89.268;2024-01-30T02:19:41;133.75;;;58.05;;
78368;SDS011;71113;43.092;-89.268;2024-01-30T02:22:08;126.40;;;55.80;;
78368;SDS011;71113;43.092;-89.268;2024-01-30T02:24:35;119.80;;;53.88;;
78368;SDS011;71113;43.092;-89.268;2024-01-30T02:27:01;114.97;;;50.80;;
78368;SDS011;71113;43.092;-89.268;2024-01-30T02:29:27;204.88;;;74.28;;
78368;SDS011;71113;43.092;-89.268;2024-01-30T02:31:53;127.95;;;53.10;;
78368;SDS011;71113;43.092;-89.268;2024-01-30T02:34:19;122.75;;;49.13;;
78368;SDS011;71113;43.092;-89.268;2024-01-30T02:36:45;125.38;;;48.47;;
78368;SDS011;71113;43.092;-89.268;2024-01-30T02:39:11;268.50;;;133.98;;
78368;SDS011;71113;43.092;-89.268;2024-01-30T02:41:37;201.15;;;98.40;;
78368;SDS011;71113;43.092;-89.268;2024-01-30T02:44:03;137.98;;;64.22;;
78368;SDS011;71113;43.092;-89.268;2024-01-30T02:46:29;124.88;;;59.10;;
78368;SDS011;71113;43.092;-89.268;2024-01-30T02:48:55;123.18;;;58.05;;
78368;SDS011;71113;43.092;-89.268;2024-01-30T02:51:24;115.78;;;50.05;;
78368;SDS011;71113;43.092;-89.268;2024-01-30T02:53:50;104.00;;;50.50;;
78368;SDS011;71113;43.092;-89.268;2024-01-30T02:56:16;100.32;;;47.33;;
78368;SDS011;71113;43.092;-89.268;2024-01-30T02:58:42;94.10;;;44.80;;
78368;SDS011;71113;43.092;-89.268;2024-01-30T03:01:08;86.40;;;41.53;;
78368;SDS011;71113;43.092;-89.268;2024-01-30T03:03:34;81.93;;;36.65;;
78368;SDS011;71113;43.092;-89.268;2024-01-30T03:06:01;79.15;;;36.65;;
78368;SDS011;71113;43.092;-89.268;2024-01-30T03:08:27;83.50;;;36.63;;
78368;SDS011;71113;43.092;-89.268;2024-01-30T03:10:53;179.00;;;56.15;;
78368;SDS011;71113;43.092;-89.268;2024-01-30T03:13:20;99.13;;;38.90;;
78368;SDS011;71113;43.092;-89.268;2024-01-30T03:15:48;84.38;;;35.45;;
78368;SDS011;71113;43.092;-89.268;2024-01-30T03:18:14;83.45;;;33.83;;
78368;SDS011;71113;43.092;-89.268;2024-01-30T03:20:40;80.57;;;33.25;;
78368;SDS011;71113;43.092;-89.268;2024-01-30T03:23:06;76.70;;;30.92;;
78368;SDS011;71113;43.092;-89.268;2024-01-30T03:25:33;75.93;;;30.90;;
78368;SDS011;71113;43.092;-89.268;2024-01-30T03:27:59;81.93;;;31.15;;
78368;SDS011;71113;43.092;-89.268;2024-01-30T03:30:25;76.55;;;31.17;;
78368;SDS011;71113;43.092;-89.268;2024-01-30T03:32:52;72.18;;;31.40;;
78368;SDS011;71113;43.092;-89.268;2024-01-30T03:35:18;71.65;;;29.20;;
78368;SDS011;71113;43.092;-89.268;2024-01-30T03:37:44;72.80;;;29.65;;
78368;SDS011;71113;43.092;-89.268;2024-01-30T03:40:10;64.75;;;28.40;;
78368;SDS011;71113;43.092;-89.268;2024-01-30T03:42:37;64.25;;;25.73;;
78368;SDS011;71113;43.092;-89.268;2024-01-30T03:45:03;63.08;;;26.70;;
78368;SDS011;71113;43.092;-89.268;2024-01-30T03:47:29;66.10;;;25.98;;
78368;SDS011;71113;43.092;-89.268;2024-01-30T03:49:55;64.03;;;24.83;;
78368;SDS011;71113;43.092;-89.268;2024-01-30T03:52:21;64.68;;;26.38;;
78368;SDS011;71113;43.092;-89.268;2024-01-30T03:54:47;56.72;;;23.05;;
78368;SDS011;71113;43.092;-89.268;2024-01-30T03:57:13;58.47;;;24.27;;
78368;SDS011;71113;43.092;-89.268;2024-01-30T03:59:41;55.33;;;22.35;;
78368;SDS011;71113;43.092;-89.268;2024-01-30T04:02:07;51.83;;;21.98;;
78368;SDS011;71113;43.092;-89.268;2024-01-30T04:04:35;49.20;;;19.80;;
78368;SDS011;71113;43.092;-89.268;2024-01-30T04:07:01;46.75;;;20.27;;
78368;SDS011;71113;43.092;-89.268;2024-01-30T04:09:27;44.38;;;20.00;;
78368;SDS011;71113;43.092;-89.268;2024-01-30T04:11:53;46.90;;;19.08;;
78368;SDS011;71113;43.092;-89.268;2024-01-30T04:14:19;44.45;;;18.75;;
78368;SDS011;71113;43.092;-89.268;2024-01-30T04:16:47;44.42;;;18.15;;
78368;SDS011;71113;43.092;-89.268;2024-01-30T04:19:13;40.20;;;18.25;;
78368;SDS011;71113;43.092;-89.268;2024-01-30T04:21:38;40.78;;;17.63;;
78368;SDS011;71113;43.092;-89.268;2024-01-30T04:24:05;43.55;;;17.45;;
78368;SDS011;71113;43.092;-89.268;2024-01-30T04:26:31;36.55;;;15.38;;
78368;SDS011;71113;43.092;-89.268;2024-01-30T04:28:57;35.58;;;15.90;;
78368;SDS011;71113;43.092;-89.268;2024-01-30T04:31:22;38.20;;;15.45;;
78368;SDS011;71113;43.092;-89.268;2024-01-30T04:33:48;35.92;;;16.08;;
78368;SDS011;71113;43.092;-89.268;2024-01-30T04:36:14;35.13;;;14.48;;
78368;SDS011;71113;43.092;-89.268;2024-01-30T04:38:40;33.05;;;14.50;;
78368;SDS011;71113;43.092;-89.268;2024-01-30T04:41:07;33.95;;;14.00;;
78368;SDS011;71113;43.092;-89.268;2024-01-30T04:43:33;34.35;;;14.10;;
78368;SDS011;71113;43.092;-89.268;2024-01-30T04:45:59;30.33;;;12.65;;
78368;SDS011;71113;43.092;-89.268;2024-01-30T04:48:25;26.42;;;12.43;;
78368;SDS011;71113;43.092;-89.268;2024-01-30T04:50:51;29.35;;;12.43;;
78368;SDS011;71113;43.092;-89.268;2024-01-30T04:53:17;27.30;;;12.30;;
78368;SDS011;71113;43.092;-89.268;2024-01-30T04:55:44;29.50;;;13.05;;
78368;SDS011;71113;43.092;-89.268;2024-01-30T04:58:10;27.73;;;12.43;;
78368;SDS011;71113;43.092;-89.268;2024-01-30T05:00:36;25.58;;;11.57;;
78368;SDS011;71113;43.092;-89.268;2024-01-30T05:03:01;26.60;;;11.43;;
78368;SDS011;71113;43.092;-89.268;2024-01-30T05:05:27;22.23;;;10.40;;
78368;SDS011;71113;43.092;-89.268;2024-01-30T05:07:53;23.52;;;10.45;;
78368;SDS011;71113;43.092;-89.268;2024-01-30T05:10:19;21.33;;;8.73;;
78368;SDS011;71113;43.092;-89.268;2024-01-30T05:12:45;23.38;;;9.73;;
78368;SDS011;71113;43.092;-89.268;2024-01-30T05:15:11;21.67;;;9.48;;
78368;SDS011;71113;43.092;-89.268;2024-01-30T05:17:37;23.10;;;9.80;;
78368;SDS011;71113;43.092;-89.268;2024-01-30T05:20:03;19.92;;;9.35;;
78368;SDS011;71113;43.092;-89.268;2024-01-30T05:22:30;23.17;;;10.05;;
78368;SDS011;71113;43.092;-89.268;2024-01-30T05:24:55;21.40;;;8.88;;
78368;SDS011;71113;43.092;-89.268;2024-01-30T05:27:21;21.55;;;8.98;;
78368;SDS011;71113;43.092;-89.268;2024-01-30T05:29:47;17.65;;;7.78;;
78368;SDS011;71113;43.092;-89.268;2024-01-30T05:32:13;18.52;;;8.02;;
78368;SDS011;71113;43.092;-89.268;2024-01-30T05:34:39;18.75;;;8.30;;
78368;SDS011;71113;43.092;-89.268;2024-01-30T05:37:05;16.92;;;8.00;;
78368;SDS011;71113;43.092;-89.268;2024-01-30T05:39:31;16.83;;;7.25;;
78368;SDS011;71113;43.092;-89.268;2024-01-30T05:41:58;15.90;;;7.25;;
78368;SDS011;71113;43.092;-89.268;2024-01-30T05:44:24;15.55;;;7.50;;
78368;SDS011;71113;43.092;-89.268;2024-01-30T05:46:50;18.33;;;8.02;;
78368;SDS011;71113;43.092;-89.268;2024-01-30T05:49:15;14.45;;;6.30;;
78368;SDS011;71113;43.092;-89.268;2024-01-30T05:51:43;15.57;;;7.32;;
78368;SDS011;71113;43.092;-89.268;2024-01-30T05:54:09;16.02;;;7.55;;
78368;SDS011;71113;43.092;-89.268;2024-01-30T05:56:35;13.70;;;6.35;;
78368;SDS011;71113;43.092;-89.268;2024-01-30T05:59:00;15.48;;;6.78;;
78368;SDS011;71113;43.092;-89.268;2024-01-30T06:01:27;14.50;;;6.50;;
78368;SDS011;71113;43.092;-89.268;2024-01-30T06:03:54;11.95;;;6.10;;
78368;SDS011;71113;43.092;-89.268;2024-01-30T06:06:40;12.27;;;6.03;;
78368;SDS011;71113;43.092;-89.268;2024-01-30T06:09:07;11.00;;;5.35;;
78368;SDS011;71113;43.092;-89.268;2024-01-30T06:11:35;13.90;;;6.30;;
78368;SDS011;71113;43.092;-89.268;2024-01-30T06:14:01;11.90;;;5.65;;
78368;SDS011;71113;43.092;-89.268;2024-01-30T06:16:27;10.60;;;5.45;;
78368;SDS011;71113;43.092;-89.268;2024-01-30T06:18:57;11.65;;;5.68;;
78368;SDS011;71113;43.092;-89.268;2024-01-30T06:21:24;11.38;;;5.18;;
78368;SDS011;71113;43.092;-89.268;2024-01-30T06:23:50;11.90;;;5.28;;
78368;SDS011;71113;43.092;-89.268;2024-01-30T06:26:16;11.18;;;5.20;;
78368;SDS011;71113;43.092;-89.268;2024-01-30T06:28:42;10.80;;;5.32;;
78368;SDS011;71113;43.092;-89.268;2024-01-30T06:31:08;11.98;;;5.00;;
78368;SDS011;71113;43.092;-89.268;2024-01-30T06:33:34;8.02;;;4.43;;
78368;SDS011;71113;43.092;-89.268;2024-01-30T06:35:59;8.70;;;4.70;;
78368;SDS011;71113;43.092;-89.268;2024-01-30T06:38:25;10.00;;;5.03;;
78368;SDS011;71113;43.092;-89.268;2024-01-30T06:40:51;8.43;;;4.70;;
78368;SDS011;71113;43.092;-89.268;2024-01-30T06:43:17;10.68;;;5.47;;
78368;SDS011;71113;43.092;-89.268;2024-01-30T06:45:43;9.23;;;4.20;;
78368;SDS011;71113;43.092;-89.268;2024-01-30T06:48:09;7.75;;;4.28;;
78368;SDS011;71113;43.092;-89.268;2024-01-30T06:50:35;8.65;;;4.50;;
78368;SDS011;71113;43.092;-89.268;2024-01-30T06:53:00;8.63;;;4.40;;
78368;SDS011;71113;43.092;-89.268;2024-01-30T06:55:26;8.07;;;4.68;;
78368;SDS011;71113;43.092;-89.268;2024-01-30T06:57:52;9.30;;;4.60;;
78368;SDS011;71113;43.092;-89.268;2024-01-30T07:00:18;9.95;;;4.68;;
78368;SDS011;71113;43.092;-89.268;2024-01-30T07:02:44;7.00;;;3.75;;
78368;SDS011;71113;43.092;-89.268;2024-01-30T07:05:10;8.77;;;4.30;;
78368;SDS011;71113;43.092;-89.268;2024-01-30T07:07:36;8.15;;;4.00;;
78368;SDS011;71113;43.092;-89.268;2024-01-30T07:10:02;8.25;;;4.15;;
78368;SDS011;71113;43.092;-89.268;2024-01-30T07:12:30;6.93;;;3.55;;
78368;SDS011;71113;43.092;-89.268;2024-01-30T07:14:56;7.45;;;3.78;;
78368;SDS011;71113;43.092;-89.268;2024-01-30T07:17:24;8.48;;;4.03;;
78368;SDS011;71113;43.092;-89.268;2024-01-30T07:19:50;7.82;;;4.00;;
78368;SDS011;71113;43.092;-89.268;2024-01-30T07:22:16;7.43;;;4.18;;
78368;SDS011;71113;43.092;-89.268;2024-01-30T07:24:42;7.50;;;3.72;;
78368;SDS011;71113;43.092;-89.268;2024-01-30T07:29:39;6.80;;;3.70;;
78368;SDS011;71113;43.092;-89.268;2024-01-30T07:32:05;6.68;;;3.40;;
78368;SDS011;71113;43.092;-89.268;2024-01-30T07:34:31;6.38;;;4.07;;
78368;SDS011;71113;43.092;-89.268;2024-01-30T07:36:57;5.65;;;3.60;;
78368;SDS011;71113;43.092;-89.268;2024-01-30T07:39:23;6.18;;;3.45;;
78368;SDS011;71113;43.092;-89.268;2024-01-30T07:41:49;6.20;;;3.03;;
78368;SDS011;71113;43.092;-89.268;2024-01-30T07:44:15;6.63;;;3.38;;
78368;SDS011;71113;43.092;-89.268;2024-01-30T07:46:41;5.70;;;2.95;;
78368;SDS011;71113;43.092;-89.268;2024-01-30T07:49:07;6.40;;;3.47;;
78368;SDS011;71113;43.092;-89.268;2024-01-30T07:51:32;6.28;;;3.20;;
78368;SDS011;71113;43.092;-89.268;2024-01-30T07:53:58;6.15;;;3.33;;
78368;SDS011;71113;43.092;-89.268;2024-01-30T07:56:24;6.00;;;3.50;;
78368;SDS011;71113;43.092;-89.268;2024-01-30T07:58:50;5.57;;;3.00;;
78368;SDS011;71113;43.092;-89.268;2024-01-30T08:01:16;6.00;;;3.00;;
78368;SDS011;71113;43.092;-89.268;2024-01-30T08:03:42;6.07;;;3.15;;
78368;SDS011;71113;43.092;-89.268;2024-01-30T08:06:08;6.45;;;2.75;;
78368;SDS011;71113;43.092;-89.268;2024-01-30T08:08:35;5.80;;;3.00;;
78368;SDS011;71113;43.092;-89.268;2024-01-30T08:11:01;5.68;;;3.17;;
78368;SDS011;71113;43.092;-89.268;2024-01-30T08:13:27;4.70;;;2.90;;
78368;SDS011;71113;43.092;-89.268;2024-01-30T08:15:53;5.20;;;3.13;;
78368;SDS011;71113;43.092;-89.268;2024-01-30T08:18:18;5.10;;;2.75;;
78368;SDS011;71113;43.092;-89.268;2024-01-30T08:20:44;5.53;;;2.80;;
78368;SDS011;71113;43.092;-89.268;2024-01-30T08:23:10;4.47;;;2.88;;
78368;SDS011;71113;43.092;-89.268;2024-01-30T08:25:36;4.90;;;3.03;;
78368;SDS011;71113;43.092;-89.268;2024-01-30T08:28:02;5.35;;;2.83;;
78368;SDS011;71113;43.092;-89.268;2024-01-30T08:30:29;6.75;;;2.80;;
78368;SDS011;71113;43.092;-89.268;2024-01-30T08:32:55;5.22;;;2.80;;
78368;SDS011;71113;43.092;-89.268;2024-01-30T08:35:20;4.75;;;3.00;;
78368;SDS011;71113;43.092;-89.268;2024-01-30T08:37:46;4.35;;;2.60;;
78368;SDS011;71113;43.092;-89.268;2024-01-30T08:40:12;5.72;;;2.92;;
78368;SDS011;71113;43.092;-89.268;2024-01-30T08:42:38;3.53;;;2.45;;
78368;SDS011;71113;43.092;-89.268;2024-01-30T08:45:04;4.53;;;2.42;;
78368;SDS011;71113;43.092;-89.268;2024-01-30T08:47:30;4.50;;;2.63;;
78368;SDS011;71113;43.092;-89.268;2024-01-30T08:49:56;4.60;;;2.53;;
78368;SDS011;71113;43.092;-89.268;2024-01-30T08:52:22;5.13;;;3.08;;
78368;SDS011;71113;43.092;-89.268;2024-01-30T08:54:48;4.43;;;2.60;;
78368;SDS011;71113;43.092;-89.268;2024-01-30T08:57:14;4.22;;;2.35;;
78368;SDS011;71113;43.092;-89.268;2024-01-30T08:59:40;4.75;;;2.72;;
78368;SDS011;71113;43.092;-89.268;2024-01-30T09:02:05;4.18;;;2.33;;
78368;SDS011;71113;43.092;-89.268;2024-01-30T09:04:31;4.60;;;2.60;;
78368;SDS011;71113;43.092;-89.268;2024-01-30T09:06:57;4.47;;;2.33;;
78368;SDS011;71113;43.092;-89.268;2024-01-30T09:09:23;3.97;;;2.55;;
78368;SDS011;71113;43.092;-89.268;2024-01-30T09:11:49;4.07;;;2.72;;
78368;SDS011;71113;43.092;-89.268;2024-01-30T09:14:15;4.18;;;2.67;;
78368;SDS011;71113;43.092;-89.268;2024-01-30T09:16:40;4.25;;;2.50;;
78368;SDS011;71113;43.092;-89.268;2024-01-30T09:19:06;3.80;;;2.67;;
78368;SDS011;71113;43.092;-89.268;2024-01-30T09:21:32;3.92;;;2.20;;
78368;SDS011;71113;43.092;-89.268;2024-01-30T09:24:01;4.22;;;2.42;;
78368;SDS011;71113;43.092;-89.268;2024-01-30T09:26:31;4.75;;;2.38;;
78368;SDS011;71113;43.092;-89.268;2024-01-30T09:28:56;3.67;;;2.40;;
78368;SDS011;71113;43.092;-89.268;2024-01-30T09:31:22;3.28;;;2.20;;
78368;SDS011;71113;43.092;-89.268;2024-01-30T09:33:48;3.30;;;2.33;;
78368;SDS011;71113;43.092;-89.268;2024-01-30T09:36:16;4.30;;;2.20;;
78368;SDS011;71113;43.092;-89.268;2024-01-30T09:38:43;4.57;;;2.50;;
78368;SDS011;71113;43.092;-89.268;2024-01-30T09:41:09;3.83;;;2.28;;
78368;SDS011;71113;43.092;-89.268;2024-01-30T09:43:38;3.85;;;2.35;;
78368;SDS011;71113;43.092;-89.268;2024-01-30T09:46:08;3.83;;;2.10;;
78368;SDS011;71113;43.092;-89.268;2024-01-30T09:48:43;4.32;;;2.35;;
78368;SDS011;71113;43.092;-89.268;2024-01-30T09:51:11;3.67;;;2.17;;
78368;SDS011;71113;43.092;-89.268;2024-01-30T09:53:43;4.10;;;2.38;;
78368;SDS011;71113;43.092;-89.268;2024-01-30T09:56:09;3.63;;;2.38;;
78368;SDS011;71113;43.092;-89.268;2024-01-30T09:58:36;3.00;;;2.10;;
78368;SDS011;71113;43.092;-89.268;2024-01-30T10:01:02;3.72;;;2.10;;
78368;SDS011;71113;43.092;-89.268;2024-01-30T10:03:28;3.30;;;2.00;;
78368;SDS011;71113;43.092;-89.268;2024-01-30T10:05:54;3.83;;;2.33;;
78368;SDS011;71113;43.092;-89.268;2024-01-30T10:08:21;3.92;;;2.13;;
78368;SDS011;71113;43.092;-89.268;2024-01-30T10:10:47;3.40;;;1.92;;
78368;SDS011;71113;43.092;-89.268;2024-01-30T10:13:15;3.53;;;2.10;;
78368;SDS011;71113;43.092;-89.268;2024-01-30T10:15:44;2.88;;;2.05;;
78368;SDS011;71113;43.092;-89.268;2024-01-30T10:18:10;3.03;;;1.98;;
78368;SDS011;71113;43.092;-89.268;2024-01-30T10:20:36;3.20;;;2.15;;
78368;SDS011;71113;43.092;-89.268;2024-01-30T10:23:02;3.53;;;2.10;;
78368;SDS011;71113;43.092;-89.268;2024-01-30T10:25:33;3.63;;;1.70;;
78368;SDS011;71113;43.092;-89.268;2024-01-30T10:27:59;3.42;;;2.20;;
78368;SDS011;71113;43.092;-89.268;2024-01-30T10:30:25;3.13;;;1.92;;
78368;SDS011;71113;43.092;-89.268;2024-01-30T10:32:51;3.20;;;2.10;;
78368;SDS011;71113;43.092;-89.268;2024-01-30T10:35:17;2.75;;;2.05;;
78368;SDS011;71113;43.092;-89.268;2024-01-30T10:37:49;3.60;;;2.03;;
78368;SDS011;71113;43.092;-89.268;2024-01-30T10:40:15;3.40;;;2.30;;
78368;SDS011;71113;43.092;-89.268;2024-01-30T10:42:42;3.60;;;2.00;;
78368;SDS011;71113;43.092;-89.268;2024-01-30T10:45:09;3.97;;;2.38;;
78368;SDS011;71113;43.092;-89.268;2024-01-30T10:47:38;3.00;;;1.80;;
78368;SDS011;71113;43.092;-89.268;2024-01-30T10:50:07;3.20;;;1.77;;
78368;SDS011;71113;43.092;-89.268;2024-01-30T10:52:34;3.22;;;2.03;;
78368;SDS011;71113;43.092;-89.268;2024-01-30T10:55:00;2.83;;;1.80;;
78368;SDS011;71113;43.092;-89.268;2024-01-30T10:57:29;2.85;;;2.00;;
78368;SDS011;71113;43.092;-89.268;2024-01-30T10:59:56;3.05;;;1.83;;
78368;SDS011;71113;43.092;-89.268;2024-01-30T11:02:24;2.97;;;1.90;;
78368;SDS011;71113;43.092;-89.268;2024-01-30T11:04:55;3.08;;;1.92;;
78368;SDS011;71113;43.092;-89.268;2024-01-30T11:07:28;3.22;;;2.00;;
78368;SDS011;71113;43.092;-89.268;2024-01-30T11:12:24;5.07;;;2.13;;
78368;SDS011;71113;43.092;-89.268;2024-01-30T11:15:04;2.90;;;2.05;;
78368;SDS011;71113;43.092;-89.268;2024-01-30T11:17:43;3.15;;;1.60;;
78368;SDS011;71113;43.092;-89.268;2024-01-30T11:20:21;2.83;;;2.13;;
78368;SDS011;71113;43.092;-89.268;2024-01-30T11:22:49;2.55;;;1.70;;
78368;SDS011;71113;43.092;-89.268;2024-01-30T11:25:17;2.70;;;1.77;;
78368;SDS011;71113;43.092;-89.268;2024-01-30T11:27:45;3.15;;;1.88;;
78368;SDS011;71113;43.092;-89.268;2024-01-30T11:30:24;3.47;;;2.03;;
78368;SDS011;71113;43.092;-89.268;2024-01-30T11:32:58;2.75;;;1.73;;
78368;SDS011;71113;43.092;-89.268;2024-01-30T11:35:34;3.10;;;1.90;;
78368;SDS011;71113;43.092;-89.268;2024-01-30T11:38:02;4.78;;;1.98;;
78368;SDS011;71113;43.092;-89.268;2024-01-30T11:40:29;2.88;;;1.60;;
78368;SDS011;71113;43.092;-89.268;2024-01-30T11:42:55;3.25;;;1.70;;
78368;SDS011;71113;43.092;-89.268;2024-01-30T11:45:23;2.72;;;1.65;;
78368;SDS011;71113;43.092;-89.268;2024-01-30T11:47:49;2.30;;;1.50;;
78368;SDS011;71113;43.092;-89.268;2024-01-30T11:50:15;2.83;;;1.67;;
78368;SDS011;71113;43.092;-89.268;2024-01-30T11:52:41;2.13;;;1.42;;
78368;SDS011;71113;43.092;-89.268;2024-01-30T11:55:08;4.80;;;1.90;;
78368;SDS011;71113;43.092;-89.268;2024-01-30T11:57:35;2.33;;;1.50;;
78368;SDS011;71113;43.092;-89.268;2024-01-30T12:00:05;3.20;;;1.40;;
78368;SDS011;71113;43.092;-89.268;2024-01-30T12:02:38;1.80;;;1.25;;
78368;SDS011;71113;43.092;-89.268;2024-01-30T12:05:05;1.58;;;1.20;;
78368;SDS011;71113;43.092;-89.268;2024-01-30T12:07:32;2.10;;;1.30;;
78368;SDS011;71113;43.092;-89.268;2024-01-30T12:09:58;1.65;;;1.20;;
78368;SDS011;71113;43.092;-89.268;2024-01-30T12:12:25;2.30;;;1.35;;
78368;SDS011;71113;43.092;-89.268;2024-01-30T12:14:52;1.98;;;1.23;;
78368;SDS011;71113;43.092;-89.268;2024-01-30T12:17:29;1.80;;;1.40;;
78368;SDS011;71113;43.092;-89.268;2024-01-30T12:20:29;2.15;;;1.13;;
78368;SDS011;71113;43.092;-89.268;2024-01-30T12:22:48;1.58;;;1.20;;
78368;SDS011;71113;43.092;-89.268;2024-01-30T12:25:16;1.75;;;1.00;;
78368;SDS011;71113;43.092;-89.268;2024-01-30T12:27:43;2.08;;;1.20;;
78368;SDS011;71113;43.092;-89.268;2024-01-30T12:30:12;2.13;;;1.45;;
78368;SDS011;71113;43.092;-89.268;2024-01-30T12:32:40;1.80;;;1.30;;
78368;SDS011;71113;43.092;-89.268;2024-01-30T12:35:10;2.10;;;1.17;;
78368;SDS011;71113;43.092;-89.268;2024-01-30T12:37:40;2.10;;;1.10;;
78368;SDS011;71113;43.092;-89.268;2024-01-30T12:40:08;1.98;;;1.45;;
78368;SDS011;71113;43.092;-89.268;2024-01-30T12:42:35;1.88;;;1.30;;
78368;SDS011;71113;43.092;-89.268;2024-01-30T12:45:02;1.70;;;1.40;;
78368;SDS011;71113;43.092;-89.268;2024-01-30T12:47:32;2.28;;;1.20;;
78368;SDS011;71113;43.092;-89.268;2024-01-30T12:49:58;2.13;;;1.40;;
78368;SDS011;71113;43.092;-89.268;2024-01-30T12:52:24;1.80;;;1.23;;
78368;SDS011;71113;43.092;-89.268;2024-01-30T12:54:50;1.75;;;1.10;;
78368;SDS011;71113;43.092;-89.268;2024-01-30T12:57:16;1.90;;;1.30;;
78368;SDS011;71113;43.092;-89.268;2024-01-30T12:59:45;2.50;;;1.30;;
78368;SDS011;71113;43.092;-89.268;2024-01-30T13:02:12;1.30;;;1.08;;
78368;SDS011;71113;43.092;-89.268;2024-01-30T13:04:39;2.10;;;1.05;;
78368;SDS011;71113;43.092;-89.268;2024-01-30T13:07:05;1.70;;;1.20;;
78368;SDS011;71113;43.092;-89.268;2024-01-30T13:09:31;1.90;;;1.20;;
78368;SDS011;71113;43.092;-89.268;2024-01-30T13:11:58;1.60;;;1.25;;
78368;SDS011;71113;43.092;-89.268;2024-01-30T13:14:25;2.50;;;1.15;;
78368;SDS011;71113;43.092;-89.268;2024-01-30T13:16:51;1.80;;;1.17;;
78368;SDS011;71113;43.092;-89.268;2024-01-30T13:19:17;1.50;;;1.10;;
78368;SDS011;71113;43.092;-89.268;2024-01-30T13:21:43;1.77;;;1.33;;
78368;SDS011;71113;43.092;-89.268;2024-01-30T13:24:09;2.00;;;1.48;;
78368;SDS011;71113;43.092;-89.268;2024-01-30T13:26:35;298.40;;;159.10;;
78368;SDS011;71113;43.092;-89.268;2024-01-30T13:29:02;492.00;;;234.63;;
78368;SDS011;71113;43.092;-89.268;2024-01-30T13:31:28;280.08;;;113.50;;
78368;SDS011;71113;43.092;-89.268;2024-01-30T13:33:55;234.63;;;89.57;;
78368;SDS011;71113;43.092;-89.268;2024-01-30T13:36:22;155.02;;;62.85;;
78368;SDS011;71113;43.092;-89.268;2024-01-30T13:38:49;139.05;;;57.55;;
78368;SDS011;71113;43.092;-89.268;2024-01-30T13:41:14;172.57;;;65.07;;
78368;SDS011;71113;43.092;-89.268;2024-01-30T13:43:42;140.52;;;55.05;;
78368;SDS011;71113;43.092;-89.268;2024-01-30T13:46:09;258.05;;;81.32;;
78368;SDS011;71113;43.092;-89.268;2024-01-30T13:48:35;171.32;;;64.45;;
78368;SDS011;71113;43.092;-89.268;2024-01-30T13:51:01;139.50;;;55.10;;
78368;SDS011;71113;43.092;-89.268;2024-01-30T13:53:27;144.77;;;55.53;;
78368;SDS011;71113;43.092;-89.268;2024-01-30T13:55:53;136.77;;;53.28;;
78368;SDS011;71113;43.092;-89.268;2024-01-30T13:58:19;134.73;;;54.15;;
78368;SDS011;71113;43.092;-89.268;2024-01-30T14:00:45;130.93;;;51.67;;
78368;SDS011;71113;43.092;-89.268;2024-01-30T14:03:11;121.43;;;48.30;;
78368;SDS011;71113;43.092;-89.268;2024-01-30T14:05:36;127.20;;;48.30;;
78368;SDS011;71113;43.092;-89.268;2024-01-30T14:08:02;120.13;;;47.28;;
78368;SDS011;71113;43.092;-89.268;2024-01-30T14:10:28;113.25;;;43.63;;